Terminal Aerodrome Forecast
Issued by NWS

Home | Current Version | Previous Version | Text Only | Print | Product List | Glossary On
Versions: 1 2 3 4 5 6 7 8 9 10 11 12 13 14 15 16 17 18 19 20 21 22 23 24 25 26
000
FTUS41 KRLX 101900 AAB
TAFCKB
TAF AMD
KCKB 101928Z 1019/1118 28004KT P6SM SCT045
      TEMPO 1019/1021 28015G25KT 2SM TSRA BKN025CB
     FM110200 00000KT 6SM BR FEW045
     FM110600 00000KT 3SM BR FEW045
     FM110900 00000KT 1 1/2SM BR FEW045
     FM111100 00000KT 2SM BR FEW045
     FM111200 00000KT 3SM BR FEW060
     FM111230 00000KT P6SM FEW045=

USA.gov is the U.S. government's official web portal to all federal, state and local government web resources and services.